Cement City, Michigan
Current Conditions -  °F | °C
As of 8:56 PM on Sunday 25 Jan 2015 (Local Time) from KJXN Reporting Station
Overcast Overcast  
Wind Chill:   Ceiling: 12000
Heat Index: 19°   Visibility: 10mi
Dew Point:   Wind: 10mph
Humidity: 57%   Direction: 40°NE
Pressure: 29.94"   Gusts: 17mph
Location:  42.07°N, 84.33°W
Report Text: KJXN 260156Z 04009G15KT 10SM OVC120 M07/M14 A2994 RMK AO2 SLP155 T10721144
Loading
Personal Weather Stations






























Interactive Weather Map New forecast layout! Learn more

10-Day Weather Forecast

Advertisements
Track Severe Weather on mobile